Galena, Nevada Weather observations

Data are for 10 minute period ending at time listed.
 Day   Time    Ave.   Ave.  Ave.  Vector   Max.   Total    Solar   
  of    of     Air    Rel.  Wind   Wind    Wind  Precip.   Rad.    
Year   Day     Temp.  Hum.  Speed  Dir.    Gust                    
2016   (PST)    F      %     mph   deg.    mph     in.     W/m2    
------------------------------------------------------------------- 
 180    8:00   77.0    23    2.0    88      6.0    0.00     501  
 180    9:00   80.0    19    3.0    83      8.0    0.00     685  
 180   10:00   83.0    17    3.0    43      8.0    0.00     840  
 180   11:00   86.0    14    3.0    18     16.0    0.00     950  
 180   12:00   89.0    11    8.0    48     12.0    0.00    1005  
 180   13:00   90.0    10    7.0    39     17.0    0.00    1012  
 180   14:00   92.0    10    4.0     0     17.0    0.00     965  
 180   15:00   91.0    10    8.0   259     18.0    0.00     866  
 180   16:00   90.0    11   10.0   254     24.0    0.00     719  
 180   17:00   89.0    10   10.0   240     23.0    0.00     601  
 180   18:00   89.0    10    4.0   257     16.0    0.00     317  
 180   19:00   82.0    16    6.0   247     13.0    0.00     125  
 180   20:00   76.0    18    6.0   264     12.0    0.00      20  
 180   21:00   74.0    21    6.0   250     13.0    0.00       0  
 180   22:00   72.0    19    6.0   282     11.0    0.00       0  
 180   23:00   67.0    22    6.0   314     11.0    0.00       0  
 181    0:00   65.0    26    4.0   275      8.0    0.00       0  
 181    1:00   63.0    31    2.0   283      7.0    0.00       0  
 181    2:00   62.0    33    1.0   303      4.0    0.00       0  
 181    3:00   65.0    27    4.0    24      9.0    0.00       0  
 181    4:00   60.0    35    4.0   290      6.0    0.00       0  
 181    5:00   60.0    33    4.0   281      5.0    0.00       2  
 181    6:00   67.0    32    3.0   284      6.0    0.00      73  
 181    7:00   75.0    22    3.0    70      5.0    0.00     293  

Return to Galena, Nevada graphs page.


Western Regional Climate Center,wrcc@dri.edu